createdAt,value
2024-01-10T00:01:21.870Z,94.60
2024-01-10T00:03:49.185Z,94.30
2024-01-10T00:06:16.443Z,94.60
2024-01-10T00:08:43.709Z,94.70
2024-01-10T00:11:11.074Z,94.60
2024-01-10T00:13:38.769Z,94.90
2024-01-10T00:16:06.517Z,94.90
2024-01-10T00:18:34.314Z,95.10
2024-01-10T00:21:01.747Z,95.10
2024-01-10T00:23:29.048Z,94.90
2024-01-10T00:25:56.349Z,94.90
2024-01-10T00:28:23.648Z,94.90
2024-01-10T00:30:51.283Z,95.10
2024-01-10T00:33:18.998Z,95.00
2024-01-10T00:35:46.259Z,94.90
2024-01-10T00:38:14.821Z,94.90
2024-01-10T00:40:42.399Z,95.00
2024-01-10T00:43:09.827Z,95.00
2024-01-10T00:45:37.036Z,95.00
2024-01-10T00:48:04.720Z,95.20
2024-01-10T00:50:32.064Z,95.30
2024-01-10T00:52:59.335Z,94.90
2024-01-10T00:55:26.635Z,95.10
2024-01-10T00:57:54.133Z,94.90
2024-01-10T01:00:21.588Z,94.70
2024-01-10T01:02:48.843Z,94.70
2024-01-10T01:05:16.205Z,94.80
2024-01-10T01:07:44.218Z,94.70
2024-01-10T01:10:11.627Z,94.60
2024-01-10T01:12:40.347Z,94.60
2024-01-10T01:15:08.718Z,94.80
2024-01-10T01:17:35.952Z,94.60
2024-01-10T01:20:05.812Z,94.80
2024-01-10T01:22:33.345Z,94.80
2024-01-10T01:25:00.585Z,94.70
2024-01-10T01:27:27.788Z,94.70
2024-01-10T01:29:55.044Z,94.90
2024-01-10T01:32:22.354Z,95.30
2024-01-10T01:34:49.719Z,95.20
2024-01-10T01:37:16.982Z,95.20
2024-01-10T01:39:44.207Z,95.40
2024-01-10T01:42:11.619Z,95.50
2024-01-10T01:44:39.198Z,95.70
2024-01-10T01:47:07.444Z,95.80
2024-01-10T01:49:35.096Z,96.60
2024-01-10T01:52:02.917Z,96.40
2024-01-10T01:54:33.835Z,96.60
2024-01-10T01:57:01.165Z,96.80
2024-01-10T01:59:28.457Z,96.80
2024-01-10T02:01:57.422Z,96.90
2024-01-10T02:04:25.112Z,97.10
2024-01-10T02:06:52.816Z,97.00
2024-01-10T02:09:20.153Z,96.80
2024-01-10T02:11:47.371Z,96.90
2024-01-10T02:14:14.826Z,97.10
2024-01-10T02:16:42.175Z,97.30
2024-01-10T02:19:20.349Z,97.60
2024-01-10T02:21:47.941Z,97.90
2024-01-10T02:24:15.327Z,97.60
2024-01-10T02:26:42.995Z,97.80
2024-01-10T02:29:10.721Z,98.00
2024-01-10T02:31:38.119Z,98.30
2024-01-10T02:34:05.571Z,98.50
2024-01-10T02:36:33.063Z,98.80
2024-01-10T02:39:00.346Z,99.20
2024-01-10T02:41:28.552Z,99.20
2024-01-10T02:43:59.770Z,99.20
2024-01-10T02:46:30.236Z,99.50
2024-01-10T02:48:57.582Z,99.30
2024-01-10T02:51:27.976Z,99.30
2024-01-10T02:53:55.239Z,99.50
2024-01-10T02:56:22.570Z,99.60
2024-01-10T02:58:49.844Z,99.70
2024-01-10T03:01:17.151Z,99.90
2024-01-10T03:03:44.546Z,99.90
2024-01-10T03:06:11.953Z,99.90
2024-01-10T03:08:39.248Z,99.90
2024-01-10T03:11:06.554Z,99.90
2024-01-10T03:13:33.812Z,99.90
2024-01-10T03:16:01.111Z,99.90
2024-01-10T03:18:28.383Z,99.90
2024-01-10T03:20:56.881Z,99.90
2024-01-10T03:23:24.178Z,99.90
2024-01-10T03:25:51.544Z,99.90
2024-01-10T03:28:18.923Z,99.90
2024-01-10T03:30:46.449Z,99.90
2024-01-10T03:33:13.804Z,99.90
2024-01-10T03:35:41.070Z,99.90
2024-01-10T03:38:08.841Z,99.90
2024-01-10T03:40:36.267Z,99.90
2024-01-10T03:43:03.748Z,99.90
2024-01-10T03:45:30.985Z,99.90
2024-01-10T03:47:58.268Z,99.90
2024-01-10T03:50:25.596Z,99.90
2024-01-10T03:52:53.269Z,99.90
2024-01-10T03:55:20.624Z,99.90
2024-01-10T03:57:47.952Z,99.90
2024-01-10T04:00:15.308Z,99.90
2024-01-10T04:02:42.750Z,99.90
2024-01-10T04:05:14.655Z,99.90
2024-01-10T04:07:43.561Z,99.90
2024-01-10T04:10:12.031Z,99.90
2024-01-10T04:12:39.233Z,99.90
2024-01-10T04:15:07.251Z,99.90
2024-01-10T04:17:34.668Z,99.90
2024-01-10T04:20:02.410Z,99.90
2024-01-10T04:22:29.866Z,99.90
2024-01-10T04:24:59.090Z,99.90
2024-01-10T04:27:26.841Z,99.90
2024-01-10T04:29:54.641Z,99.90
2024-01-10T04:32:22.012Z,99.90
2024-01-10T04:34:49.321Z,99.90
2024-01-10T04:37:16.851Z,99.90
2024-01-10T04:39:44.160Z,99.90
2024-01-10T04:42:14.404Z,99.90
2024-01-10T04:44:41.680Z,99.90
2024-01-10T04:47:09.077Z,99.90
2024-01-10T04:49:36.629Z,99.90
2024-01-10T04:52:04.085Z,99.90
2024-01-10T04:54:31.369Z,99.90
2024-01-10T04:56:58.608Z,99.90
2024-01-10T04:59:25.867Z,99.90
2024-01-10T05:01:53.383Z,99.90
2024-01-10T05:04:20.623Z,99.90
2024-01-10T05:06:47.895Z,99.90
2024-01-10T05:09:15.176Z,99.90
2024-01-10T05:11:44.237Z,99.90
2024-01-10T05:14:12.375Z,99.90
2024-01-10T05:16:39.842Z,99.90
2024-01-10T05:19:07.241Z,99.90
2024-01-10T05:21:34.976Z,99.90
2024-01-10T05:24:02.240Z,99.90
2024-01-10T05:26:29.546Z,99.90
2024-01-10T05:28:56.813Z,99.90
2024-01-10T05:31:24.054Z,99.90
2024-01-10T05:33:51.405Z,99.90
2024-01-10T05:36:18.692Z,99.90
2024-01-10T05:38:45.921Z,99.90
2024-01-10T05:41:13.319Z,99.90
2024-01-10T05:43:40.895Z,99.90
2024-01-10T05:46:08.135Z,99.90
2024-01-10T05:48:35.447Z,99.90
2024-01-10T05:51:02.798Z,99.90
2024-01-10T05:53:30.319Z,99.90
2024-01-10T05:55:57.772Z,99.90
2024-01-10T05:58:25.038Z,99.90
2024-01-10T06:00:52.957Z,99.90
2024-01-10T06:03:20.368Z,99.90
2024-01-10T06:05:47.615Z,99.90
2024-01-10T06:08:15.433Z,99.90
2024-01-10T06:10:42.896Z,99.90
2024-01-10T06:13:10.220Z,99.90
2024-01-10T06:15:37.484Z,99.90
2024-01-10T06:18:04.934Z,99.90
2024-01-10T06:20:33.164Z,99.90
2024-01-10T06:23:00.610Z,99.90
2024-01-10T06:25:28.661Z,99.90
2024-01-10T06:27:56.143Z,99.90
2024-01-10T06:30:23.419Z,99.90
2024-01-10T06:32:50.693Z,99.90
2024-01-10T06:35:18.068Z,99.90
2024-01-10T06:37:45.630Z,99.90
2024-01-10T06:40:13.190Z,99.90
2024-01-10T06:42:40.548Z,99.90
2024-01-10T06:45:09.403Z,99.90
2024-01-10T06:47:36.936Z,99.90
2024-01-10T06:50:06.618Z,99.90
2024-01-10T06:52:33.968Z,99.90
2024-01-10T06:55:01.224Z,99.90
2024-01-10T06:57:28.555Z,99.90
2024-01-10T06:59:55.811Z,99.90
2024-01-10T07:02:24.329Z,99.90
2024-01-10T07:04:51.841Z,99.90
2024-01-10T07:07:19.095Z,99.90
2024-01-10T07:09:46.618Z,99.90
2024-01-10T07:12:13.908Z,99.90
2024-01-10T07:14:41.203Z,99.90
2024-01-10T07:17:08.653Z,99.90
2024-01-10T07:19:36.012Z,99.90
2024-01-10T07:22:03.344Z,99.90
2024-01-10T07:24:30.639Z,99.90
2024-01-10T07:26:58.243Z,99.90
2024-01-10T07:29:25.545Z,99.90
2024-01-10T07:31:53.999Z,99.90
2024-01-10T07:34:22.489Z,99.90
2024-01-10T07:36:49.789Z,99.90
2024-01-10T07:39:19.161Z,99.90
2024-01-10T07:41:46.756Z,99.90
2024-01-10T07:44:14.173Z,99.90
2024-01-10T07:46:41.597Z,99.90
2024-01-10T07:49:08.983Z,99.90
2024-01-10T07:51:37.261Z,99.90
2024-01-10T07:54:04.660Z,99.90
2024-01-10T07:56:31.904Z,99.90
2024-01-10T07:58:59.194Z,99.90
2024-01-10T08:01:27.106Z,99.90
2024-01-10T08:03:54.365Z,99.90
2024-01-10T08:06:27.287Z,99.90
2024-01-10T08:08:59.901Z,99.90
2024-01-10T08:11:27.448Z,99.90
2024-01-10T08:13:54.871Z,99.90
2024-01-10T08:16:22.466Z,99.90
2024-01-10T08:18:49.951Z,99.90
2024-01-10T08:21:17.303Z,99.90
2024-01-10T08:23:44.560Z,99.90
2024-01-10T08:26:12.708Z,99.90
2024-01-10T08:28:40.209Z,99.90
2024-01-10T08:31:08.484Z,99.90
2024-01-10T08:33:35.893Z,99.90
2024-01-10T08:36:03.744Z,99.90
2024-01-10T08:38:31.157Z,99.90
2024-01-10T08:40:58.682Z,99.90
2024-01-10T08:43:25.958Z,99.90
2024-01-10T08:45:53.381Z,99.90
2024-01-10T08:48:20.754Z,99.90
2024-01-10T08:50:48.143Z,99.90
2024-01-10T08:53:15.390Z,99.90
2024-01-10T08:55:42.972Z,99.90
2024-01-10T08:58:10.459Z,99.90
2024-01-10T09:00:37.906Z,99.90
2024-01-10T09:03:05.898Z,99.90
2024-01-10T09:05:33.818Z,99.90
2024-01-10T09:08:01.401Z,99.90
2024-01-10T09:10:29.319Z,99.90
2024-01-10T09:12:59.326Z,99.90
2024-01-10T09:15:26.720Z,99.90
2024-01-10T09:17:54.102Z,99.90
2024-01-10T09:20:21.703Z,99.90
2024-01-10T09:22:50.211Z,99.90
2024-01-10T09:25:18.432Z,99.90
2024-01-10T09:27:46.313Z,99.90
2024-01-10T09:30:14.398Z,99.90
2024-01-10T09:32:41.858Z,99.90
2024-01-10T09:35:10.026Z,99.90
2024-01-10T09:37:37.563Z,99.90
2024-01-10T09:40:07.197Z,99.90
2024-01-10T09:42:37.989Z,99.90
2024-01-10T09:45:06.292Z,99.90
2024-01-10T09:47:36.658Z,99.90
2024-01-10T09:50:05.251Z,99.90
2024-01-10T09:52:40.286Z,99.90
2024-01-10T09:55:09.483Z,99.90
2024-01-10T09:57:37.693Z,99.90
2024-01-10T10:00:11.702Z,99.90
2024-01-10T10:02:40.874Z,99.30
2024-01-10T10:05:27.492Z,97.80
2024-01-10T10:07:55.167Z,97.10
2024-01-10T10:10:22.787Z,97.10
2024-01-10T10:12:54.984Z,96.00
2024-01-10T10:15:24.070Z,96.00
2024-01-10T10:17:54.643Z,95.20
2024-01-10T10:20:26.970Z,95.70
2024-01-10T10:23:05.531Z,94.70
2024-01-10T10:25:35.143Z,94.20
2024-01-10T10:28:04.162Z,94.60
2024-01-10T10:30:35.569Z,93.40
2024-01-10T10:33:04.324Z,92.80
2024-01-10T10:35:38.961Z,93.60
2024-01-10T10:38:12.304Z,93.10
2024-01-10T10:40:40.223Z,92.90
2024-01-10T10:43:15.240Z,92.30
2024-01-10T10:45:49.375Z,92.70
2024-01-10T10:48:20.636Z,92.00
2024-01-10T10:51:11.718Z,91.70
2024-01-10T10:53:41.600Z,91.20
2024-01-10T10:56:09.410Z,90.60
2024-01-10T10:58:40.548Z,90.20
2024-01-10T11:01:10.163Z,90.30
2024-01-10T11:03:39.218Z,90.40
2024-01-10T11:06:07.701Z,89.10
2024-01-10T11:08:50.581Z,89.00
2024-01-10T11:11:55.355Z,89.80
2024-01-10T11:14:31.463Z,89.50
2024-01-10T11:17:36.134Z,89.10
2024-01-10T11:20:34.709Z,88.40
2024-01-10T11:23:20.670Z,89.00
2024-01-10T11:25:48.020Z,87.20
2024-01-10T11:28:15.547Z,88.20
2024-01-10T11:31:01.094Z,86.80
2024-01-10T11:33:41.986Z,87.70
2024-01-10T11:36:13.601Z,87.50
2024-01-10T11:38:49.165Z,87.20
2024-01-10T11:41:24.189Z,86.60
2024-01-10T11:44:13.769Z,87.80
2024-01-10T11:46:42.635Z,88.80
2024-01-10T11:49:16.753Z,87.30
2024-01-10T11:51:47.958Z,86.80
2024-01-10T11:54:34.130Z,85.30
2024-01-10T11:57:02.523Z,84.70
2024-01-10T11:59:31.729Z,83.70
2024-01-10T12:01:59.902Z,81.80
2024-01-10T12:04:41.280Z,79.20
2024-01-10T12:07:14.592Z,78.60
2024-01-10T12:09:42.991Z,77.40
2024-01-10T12:12:12.409Z,79.20
2024-01-10T12:14:41.056Z,79.50
2024-01-10T12:17:09.430Z,78.30
2024-01-10T12:19:40.701Z,76.90
2024-01-10T12:22:09.035Z,75.80
2024-01-10T12:24:46.305Z,75.90
2024-01-10T12:27:13.920Z,75.80
2024-01-10T12:29:41.317Z,75.70
2024-01-10T12:32:10.308Z,75.40
2024-01-10T12:34:41.371Z,76.10
2024-01-10T12:37:11.178Z,75.70
2024-01-10T12:39:39.118Z,76.50
2024-01-10T12:42:06.503Z,76.40
2024-01-10T12:44:35.129Z,76.50
2024-01-10T12:47:03.752Z,77.00
2024-01-10T12:49:31.164Z,76.60
2024-01-10T12:51:58.893Z,76.20
2024-01-10T12:54:26.310Z,75.80
2024-01-10T12:56:53.646Z,76.00
2024-01-10T12:59:21.021Z,75.20
2024-01-10T13:01:48.428Z,76.40
2024-01-10T13:04:16.016Z,76.50
2024-01-10T13:06:43.297Z,76.40
2024-01-10T13:09:10.858Z,76.50
2024-01-10T13:11:38.470Z,75.60
2024-01-10T13:14:05.886Z,75.40
2024-01-10T13:16:42.589Z,75.50
2024-01-10T13:19:16.668Z,75.70
2024-01-10T13:21:43.986Z,75.80
2024-01-10T13:24:11.233Z,77.00
2024-01-10T13:26:38.632Z,76.20
2024-01-10T13:29:06.017Z,76.60
2024-01-10T13:31:33.257Z,77.90
2024-01-10T13:34:00.612Z,77.60
2024-01-10T13:36:27.889Z,78.30
2024-01-10T13:38:55.185Z,77.40
2024-01-10T13:41:22.419Z,77.20
2024-01-10T13:43:49.701Z,77.00
2024-01-10T13:46:18.028Z,75.90
2024-01-10T13:48:45.355Z,76.40
2024-01-10T13:51:12.700Z,77.60
2024-01-10T13:53:39.978Z,77.30
2024-01-10T13:56:07.724Z,77.80
2024-01-10T13:58:35.154Z,78.10
2024-01-10T14:01:02.629Z,78.00
2024-01-10T14:03:33.496Z,77.70
2024-01-10T14:06:01.892Z,78.70
2024-01-10T14:08:30.776Z,78.00
2024-01-10T14:10:58.124Z,78.00
2024-01-10T14:13:25.392Z,78.40
2024-01-10T14:15:52.586Z,78.30
2024-01-10T14:18:19.928Z,77.80
2024-01-10T14:20:47.280Z,77.90
2024-01-10T14:23:15.200Z,78.30
2024-01-10T14:25:42.459Z,79.10
2024-01-10T14:28:09.698Z,79.90
2024-01-10T14:30:37.009Z,80.00
2024-01-10T14:33:05.266Z,80.40
2024-01-10T14:35:32.942Z,79.80
2024-01-10T14:38:00.467Z,79.90
2024-01-10T14:40:27.741Z,79.40
2024-01-10T14:42:54.944Z,80.30
2024-01-10T14:45:22.182Z,81.30
2024-01-10T14:47:50.788Z,80.40
2024-01-10T14:52:45.462Z,80.30
2024-01-10T14:55:12.893Z,79.90
2024-01-10T14:57:40.137Z,79.90
2024-01-10T15:00:08.008Z,80.80
2024-01-10T15:02:37.233Z,80.60
2024-01-10T15:05:06.397Z,80.20
2024-01-10T15:07:33.698Z,80.60
2024-01-10T15:10:03.958Z,80.80
2024-01-10T15:12:32.066Z,81.00
2024-01-10T15:15:02.666Z,81.50
2024-01-10T15:17:30.225Z,81.60
2024-01-10T15:19:57.581Z,81.10
2024-01-10T15:22:24.876Z,81.50
2024-01-10T15:24:52.058Z,81.50
2024-01-10T15:27:19.756Z,82.40
2024-01-10T15:29:53.165Z,82.60
2024-01-10T15:32:24.228Z,82.90
2024-01-10T15:34:51.763Z,83.50
2024-01-10T15:37:19.028Z,84.50
2024-01-10T15:39:47.367Z,84.80
2024-01-10T15:42:14.814Z,85.10
2024-01-10T15:44:43.650Z,86.10
2024-01-10T15:47:11.204Z,87.70
2024-01-10T15:49:38.722Z,88.60
2024-01-10T15:52:06.106Z,89.80
2024-01-10T15:54:38.504Z,90.70
2024-01-10T15:57:06.062Z,90.90
2024-01-10T15:59:33.545Z,91.30
2024-01-10T16:02:00.777Z,91.40
2024-01-10T16:04:29.547Z,92.10
2024-01-10T16:06:56.899Z,91.80
2024-01-10T16:09:24.854Z,91.90
2024-01-10T16:11:52.193Z,92.20
2024-01-10T16:14:19.485Z,91.70
2024-01-10T16:16:46.805Z,92.30
2024-01-10T16:19:14.494Z,92.30
2024-01-10T16:21:41.899Z,92.30
2024-01-10T16:24:09.343Z,92.10
2024-01-10T16:26:37.434Z,92.30
2024-01-10T16:29:05.024Z,92.50
2024-01-10T16:31:32.941Z,93.90
2024-01-10T16:34:00.179Z,94.20
2024-01-10T16:36:27.487Z,94.40
2024-01-10T16:38:56.033Z,95.70
2024-01-10T16:41:23.381Z,95.20
2024-01-10T16:43:50.730Z,95.00
2024-01-10T16:46:18.000Z,94.40
2024-01-10T16:48:45.444Z,93.70
2024-01-10T16:51:12.785Z,94.10
2024-01-10T16:53:40.037Z,93.80
2024-01-10T16:56:08.547Z,94.20
2024-01-10T16:58:35.863Z,94.70
2024-01-10T17:01:03.245Z,94.60
2024-01-10T17:03:32.249Z,94.90
2024-01-10T17:06:00.348Z,95.60
2024-01-10T17:08:27.737Z,95.20
2024-01-10T17:10:55.070Z,95.60
2024-01-10T17:13:24.343Z,95.50
2024-01-10T17:15:51.758Z,95.40
2024-01-10T17:18:19.327Z,95.20
2024-01-10T17:20:46.725Z,95.10
2024-01-10T17:23:14.617Z,95.00
2024-01-10T17:25:41.912Z,95.90
2024-01-10T17:28:09.250Z,95.60
2024-01-10T17:30:36.552Z,95.60
2024-01-10T17:33:09.511Z,95.70
2024-01-10T17:35:37.627Z,96.70
2024-01-10T17:38:06.775Z,97.20
2024-01-10T17:40:34.214Z,97.50
2024-01-10T17:43:01.479Z,97.30
2024-01-10T17:45:28.722Z,97.70
2024-01-10T17:47:56.242Z,97.90
2024-01-10T17:50:25.318Z,97.80
2024-01-10T17:52:52.877Z,98.10
2024-01-10T17:55:20.199Z,97.90
2024-01-10T17:57:47.487Z,98.00
2024-01-10T18:00:15.472Z,98.90
2024-01-10T18:02:42.876Z,98.90
2024-01-10T18:05:10.558Z,98.50
2024-01-10T18:07:37.873Z,99.20
2024-01-10T18:10:05.664Z,99.50
2024-01-10T18:12:33.033Z,99.40
2024-01-10T18:15:01.141Z,99.20
2024-01-10T18:17:28.409Z,98.90
2024-01-10T18:19:55.693Z,98.10
2024-01-10T18:22:22.967Z,98.10
2024-01-10T18:24:50.201Z,98.30
2024-01-10T18:27:17.627Z,98.50
2024-01-10T18:29:45.008Z,99.00
2024-01-10T18:32:12.665Z,99.40
2024-01-10T18:34:39.957Z,99.80
2024-01-10T18:37:07.309Z,99.90
2024-01-10T18:39:35.003Z,99.90
2024-01-10T18:42:02.455Z,99.90
2024-01-10T18:44:29.912Z,99.30
2024-01-10T18:46:57.307Z,99.10
2024-01-10T18:49:24.583Z,99.30
2024-01-10T18:51:52.090Z,99.20
2024-01-10T18:54:19.392Z,99.90
2024-01-10T18:56:46.910Z,99.90
2024-01-10T18:59:14.229Z,99.90
2024-01-10T19:01:44.183Z,99.90
2024-01-10T19:04:11.697Z,99.90
2024-01-10T19:06:39.258Z,99.90
2024-01-10T19:09:07.136Z,99.90
2024-01-10T19:11:34.654Z,99.90
2024-01-10T19:14:02.046Z,99.90
2024-01-10T19:16:29.390Z,99.90
2024-01-10T19:18:56.677Z,99.90
2024-01-10T19:21:24.031Z,99.90
2024-01-10T19:23:51.321Z,99.90
2024-01-10T19:26:25.823Z,99.90
2024-01-10T19:28:53.438Z,99.90
2024-01-10T19:31:21.069Z,99.90
2024-01-10T19:33:49.766Z,99.90
2024-01-10T19:36:17.942Z,99.90
2024-01-10T19:38:45.982Z,99.90
2024-01-10T19:41:24.081Z,99.90
2024-01-10T19:43:52.256Z,99.90
2024-01-10T19:46:20.457Z,99.90
2024-01-10T19:48:48.626Z,99.90
2024-01-10T19:51:17.028Z,99.90
2024-01-10T19:53:49.330Z,99.90
2024-01-10T19:56:17.500Z,99.90
2024-01-10T19:58:45.509Z,99.90
2024-01-10T20:01:13.293Z,99.90
2024-01-10T20:03:40.865Z,99.90
2024-01-10T20:06:09.079Z,99.90
2024-01-10T20:08:36.565Z,99.90
2024-01-10T20:11:04.003Z,99.90
2024-01-10T20:13:31.338Z,99.90
2024-01-10T20:15:58.622Z,99.90
2024-01-10T20:18:26.122Z,99.90
2024-01-10T20:20:53.500Z,99.90
2024-01-10T20:23:20.933Z,99.90
2024-01-10T20:25:49.040Z,99.90
2024-01-10T20:28:19.084Z,99.90
2024-01-10T20:30:47.125Z,99.90
2024-01-10T20:33:14.630Z,99.90
2024-01-10T20:35:42.396Z,99.90
2024-01-10T20:38:09.850Z,99.90
2024-01-10T20:40:37.206Z,99.90
2024-01-10T20:43:04.785Z,99.90
2024-01-10T20:45:32.056Z,99.90
2024-01-10T20:47:59.385Z,99.90
2024-01-10T20:50:26.798Z,99.90
2024-01-10T20:52:54.119Z,99.90
2024-01-10T20:55:21.402Z,99.90
2024-01-10T20:57:48.782Z,99.90
2024-01-10T21:00:16.405Z,99.90
2024-01-10T21:02:43.757Z,99.90
2024-01-10T21:05:11.132Z,99.90
2024-01-10T21:07:38.490Z,99.90
2024-01-10T21:10:06.046Z,99.90
2024-01-10T21:12:33.678Z,99.90
2024-01-10T21:15:00.969Z,99.90
2024-01-10T21:17:28.583Z,99.90
2024-01-10T21:19:58.746Z,99.90
2024-01-10T21:22:28.223Z,99.90
2024-01-10T21:24:56.205Z,99.90
2024-01-10T21:27:26.475Z,99.90
2024-01-10T21:29:53.830Z,99.90
2024-01-10T21:32:21.201Z,99.90
2024-01-10T21:34:49.140Z,99.90
2024-01-10T21:37:16.554Z,99.90
2024-01-10T21:39:43.992Z,99.90
2024-01-10T21:42:11.257Z,99.90
2024-01-10T21:44:38.563Z,99.90
2024-01-10T21:47:07.520Z,99.90
2024-01-10T21:49:35.069Z,99.90
2024-01-10T21:52:02.486Z,99.90
2024-01-10T21:54:29.848Z,99.90
2024-01-10T21:56:57.219Z,99.90
2024-01-10T21:59:24.822Z,99.90
2024-01-10T22:01:52.193Z,99.90
2024-01-10T22:04:19.816Z,99.90
2024-01-10T22:06:47.756Z,99.90
2024-01-10T22:09:15.253Z,99.90
2024-01-10T22:11:43.362Z,99.90
2024-01-10T22:14:13.107Z,99.90
2024-01-10T22:16:40.655Z,99.90
2024-01-10T22:19:07.952Z,99.90
2024-01-10T22:21:35.309Z,99.90
2024-01-10T22:24:02.756Z,99.90
2024-01-10T22:26:30.078Z,99.90
2024-01-10T22:28:57.388Z,99.90
2024-01-10T22:31:24.681Z,99.90
2024-01-10T22:33:52.078Z,99.90
2024-01-10T22:36:19.408Z,99.90
2024-01-10T22:38:46.856Z,99.90
2024-01-10T22:41:15.158Z,99.90
2024-01-10T22:43:42.539Z,99.90
2024-01-10T22:46:09.852Z,99.90
2024-01-10T22:48:37.523Z,99.90
2024-01-10T22:51:05.021Z,99.90
2024-01-10T22:53:32.421Z,99.90
2024-01-10T22:56:00.478Z,99.90
2024-01-10T22:58:29.776Z,99.90
2024-01-10T23:01:00.258Z,99.90
2024-01-10T23:03:32.036Z,99.90
2024-01-10T23:05:59.811Z,99.90
2024-01-10T23:08:27.230Z,99.90
2024-01-10T23:10:54.517Z,99.90
2024-01-10T23:13:21.802Z,99.90
2024-01-10T23:15:49.093Z,99.90
2024-01-10T23:18:18.583Z,99.90
2024-01-10T23:20:45.989Z,99.90
2024-01-10T23:23:13.759Z,99.90
2024-01-10T23:25:41.481Z,99.90
2024-01-10T23:28:08.783Z,99.90
2024-01-10T23:30:36.216Z,99.90
2024-01-10T23:33:04.180Z,99.90
2024-01-10T23:35:40.440Z,99.90
2024-01-10T23:38:15.035Z,99.90
2024-01-10T23:40:42.373Z,99.90
2024-01-10T23:43:15.888Z,99.90
2024-01-10T23:45:52.167Z,99.90
2024-01-10T23:48:19.496Z,99.90
2024-01-10T23:50:46.962Z,99.90
2024-01-10T23:53:14.720Z,99.90
2024-01-10T23:55:42.444Z,99.90
2024-01-10T23:58:10.852Z,99.90
